sensor_id;sensor_type;location;lat;lon;timestamp;P1;durP1;ratioP1;P2;durP2;ratioP2
26582;SDS011;14230;45.382;10.998;2022-10-31T00:00:59;26.67;;;15.63;;
26582;SDS011;14230;45.382;10.998;2022-10-31T00:03:27;25.15;;;13.90;;
26582;SDS011;14230;45.382;10.998;2022-10-31T00:05:54;26.35;;;14.90;;
26582;SDS011;14230;45.382;10.998;2022-10-31T00:08:22;31.67;;;13.65;;
26582;SDS011;14230;45.382;10.998;2022-10-31T00:10:49;29.98;;;13.40;;
26582;SDS011;14230;45.382;10.998;2022-10-31T00:13:16;20.42;;;14.18;;
26582;SDS011;14230;45.382;10.998;2022-10-31T00:15:44;30.35;;;14.00;;
26582;SDS011;14230;45.382;10.998;2022-10-31T00:18:12;27.95;;;12.73;;
26582;SDS011;14230;45.382;10.998;2022-10-31T00:20:39;25.00;;;13.13;;
26582;SDS011;14230;45.382;10.998;2022-10-31T00:23:07;27.92;;;14.48;;
26582;SDS011;14230;45.382;10.998;2022-10-31T00:25:35;20.33;;;13.23;;
26582;SDS011;14230;45.382;10.998;2022-10-31T00:28:04;25.88;;;14.02;;
26582;SDS011;14230;45.382;10.998;2022-10-31T00:30:33;33.20;;;14.13;;
26582;SDS011;14230;45.382;10.998;2022-10-31T00:33:02;31.75;;;16.20;;
26582;SDS011;14230;45.382;10.998;2022-10-31T00:35:31;28.63;;;15.43;;
26582;SDS011;14230;45.382;10.998;2022-10-31T00:37:59;27.20;;;12.73;;
26582;SDS011;14230;45.382;10.998;2022-10-31T00:40:26;23.95;;;12.55;;
26582;SDS011;14230;45.382;10.998;2022-10-31T00:42:54;26.27;;;13.43;;
26582;SDS011;14230;45.382;10.998;2022-10-31T00:45:22;21.10;;;12.20;;
26582;SDS011;14230;45.382;10.998;2022-10-31T00:47:50;21.70;;;12.55;;
26582;SDS011;14230;45.382;10.998;2022-10-31T00:50:17;20.23;;;12.50;;
26582;SDS011;14230;45.382;10.998;2022-10-31T00:52:45;23.13;;;13.07;;
26582;SDS011;14230;45.382;10.998;2022-10-31T00:55:12;27.83;;;12.75;;
26582;SDS011;14230;45.382;10.998;2022-10-31T00:57:41;24.58;;;11.82;;
26582;SDS011;14230;45.382;10.998;2022-10-31T01:00:09;25.13;;;14.20;;
26582;SDS011;14230;45.382;10.998;2022-10-31T01:02:37;22.70;;;13.27;;
26582;SDS011;14230;45.382;10.998;2022-10-31T01:05:05;20.55;;;12.68;;
26582;SDS011;14230;45.382;10.998;2022-10-31T01:07:35;17.80;;;10.52;;
26582;SDS011;14230;45.382;10.998;2022-10-31T01:10:03;23.58;;;11.25;;
26582;SDS011;14230;45.382;10.998;2022-10-31T01:15:10;17.08;;;9.00;;
26582;SDS011;14230;45.382;10.998;2022-10-31T01:17:41;20.35;;;9.38;;
26582;SDS011;14230;45.382;10.998;2022-10-31T01:20:10;18.25;;;10.27;;
26582;SDS011;14230;45.382;10.998;2022-10-31T01:22:40;24.52;;;11.45;;
26582;SDS011;14230;45.382;10.998;2022-10-31T01:25:08;26.75;;;12.40;;
26582;SDS011;14230;45.382;10.998;2022-10-31T01:27:36;15.48;;;9.70;;
26582;SDS011;14230;45.382;10.998;2022-10-31T01:30:06;16.15;;;10.43;;
26582;SDS011;14230;45.382;10.998;2022-10-31T01:32:34;17.33;;;10.98;;
26582;SDS011;14230;45.382;10.998;2022-10-31T01:35:02;19.98;;;9.98;;
26582;SDS011;14230;45.382;10.998;2022-10-31T01:37:30;17.85;;;9.75;;
26582;SDS011;14230;45.382;10.998;2022-10-31T01:39:58;18.02;;;10.00;;
26582;SDS011;14230;45.382;10.998;2022-10-31T01:42:26;15.15;;;10.35;;
26582;SDS011;14230;45.382;10.998;2022-10-31T01:44:58;20.95;;;10.38;;
26582;SDS011;14230;45.382;10.998;2022-10-31T01:47:30;23.95;;;11.65;;
26582;SDS011;14230;45.382;10.998;2022-10-31T01:50:13;19.67;;;10.23;;
26582;SDS011;14230;45.382;10.998;2022-10-31T01:53:02;18.92;;;11.25;;
26582;SDS011;14230;45.382;10.998;2022-10-31T01:55:35;23.25;;;10.60;;
26582;SDS011;14230;45.382;10.998;2022-10-31T01:58:07;19.42;;;10.95;;
26582;SDS011;14230;45.382;10.998;2022-10-31T02:00:40;16.20;;;10.15;;
26582;SDS011;14230;45.382;10.998;2022-10-31T02:03:11;16.75;;;10.85;;
26582;SDS011;14230;45.382;10.998;2022-10-31T02:05:39;17.20;;;10.00;;
26582;SDS011;14230;45.382;10.998;2022-10-31T02:08:27;21.73;;;10.40;;
26582;SDS011;14230;45.382;10.998;2022-10-31T02:10:56;18.58;;;10.13;;
26582;SDS011;14230;45.382;10.998;2022-10-31T02:13:25;18.73;;;11.18;;
26582;SDS011;14230;45.382;10.998;2022-10-31T02:15:55;19.58;;;9.68;;
26582;SDS011;14230;45.382;10.998;2022-10-31T02:18:26;20.83;;;10.73;;
26582;SDS011;14230;45.382;10.998;2022-10-31T02:23:58;18.50;;;8.90;;
26582;SDS011;14230;45.382;10.998;2022-10-31T02:27:32;19.52;;;10.77;;
26582;SDS011;14230;45.382;10.998;2022-10-31T02:46:36;19.20;;;10.35;;
26582;SDS011;14230;45.382;10.998;2022-10-31T02:52:20;16.40;;;10.82;;
26582;SDS011;14230;45.382;10.998;2022-10-31T02:54:51;17.55;;;11.30;;
26582;SDS011;14230;45.382;10.998;2022-10-31T02:57:23;22.42;;;11.50;;
26582;SDS011;14230;45.382;10.998;2022-10-31T02:59:53;18.38;;;10.82;;
26582;SDS011;14230;45.382;10.998;2022-10-31T03:05:20;25.60;;;10.73;;
26582;SDS011;14230;45.382;10.998;2022-10-31T03:15:34;26.92;;;12.05;;
26582;SDS011;14230;45.382;10.998;2022-10-31T03:20:40;18.70;;;11.18;;
26582;SDS011;14230;45.382;10.998;2022-10-31T03:23:13;26.50;;;11.02;;
26582;SDS011;14230;45.382;10.998;2022-10-31T03:25:47;17.85;;;10.52;;
26582;SDS011;14230;45.382;10.998;2022-10-31T03:28:16;17.20;;;10.48;;
26582;SDS011;14230;45.382;10.998;2022-10-31T03:30:47;20.15;;;11.75;;
26582;SDS011;14230;45.382;10.998;2022-10-31T03:33:17;17.70;;;11.80;;
26582;SDS011;14230;45.382;10.998;2022-10-31T03:38:18;17.23;;;10.95;;
26582;SDS011;14230;45.382;10.998;2022-10-31T03:40:46;16.23;;;11.15;;
26582;SDS011;14230;45.382;10.998;2022-10-31T03:43:16;22.17;;;10.88;;
26582;SDS011;14230;45.382;10.998;2022-10-31T03:45:51;17.05;;;10.88;;
26582;SDS011;14230;45.382;10.998;2022-10-31T03:48:19;20.15;;;11.32;;
26582;SDS011;14230;45.382;10.998;2022-10-31T03:53:25;14.45;;;11.35;;
26582;SDS011;14230;45.382;10.998;2022-10-31T03:56:02;19.02;;;11.07;;
26582;SDS011;14230;45.382;10.998;2022-10-31T03:58:57;21.35;;;11.63;;
26582;SDS011;14230;45.382;10.998;2022-10-31T04:01:32;19.15;;;10.45;;
26582;SDS011;14230;45.382;10.998;2022-10-31T04:04:04;21.40;;;10.77;;
26582;SDS011;14230;45.382;10.998;2022-10-31T04:06:34;16.92;;;10.40;;
26582;SDS011;14230;45.382;10.998;2022-10-31T04:09:04;20.02;;;10.65;;
26582;SDS011;14230;45.382;10.998;2022-10-31T04:11:36;18.80;;;11.48;;
26582;SDS011;14230;45.382;10.998;2022-10-31T04:14:27;18.55;;;11.45;;
26582;SDS011;14230;45.382;10.998;2022-10-31T04:16:59;23.73;;;10.93;;
26582;SDS011;14230;45.382;10.998;2022-10-31T04:19:34;25.65;;;12.30;;
26582;SDS011;14230;45.382;10.998;2022-10-31T04:22:01;17.85;;;11.05;;
26582;SDS011;14230;45.382;10.998;2022-10-31T04:24:29;25.73;;;11.05;;
26582;SDS011;14230;45.382;10.998;2022-10-31T04:26:57;18.30;;;10.85;;
26582;SDS011;14230;45.382;10.998;2022-10-31T04:29:25;20.48;;;11.82;;
26582;SDS011;14230;45.382;10.998;2022-10-31T04:31:52;24.95;;;10.27;;
26582;SDS011;14230;45.382;10.998;2022-10-31T04:34:20;16.50;;;10.75;;
26582;SDS011;14230;45.382;10.998;2022-10-31T04:36:49;21.48;;;10.13;;
26582;SDS011;14230;45.382;10.998;2022-10-31T04:39:17;16.05;;;9.75;;
26582;SDS011;14230;45.382;10.998;2022-10-31T04:42:18;19.48;;;10.13;;
26582;SDS011;14230;45.382;10.998;2022-10-31T04:44:45;13.65;;;8.95;;
26582;SDS011;14230;45.382;10.998;2022-10-31T04:47:13;19.48;;;11.55;;
26582;SDS011;14230;45.382;10.998;2022-10-31T04:49:42;16.05;;;11.55;;
26582;SDS011;14230;45.382;10.998;2022-10-31T04:52:11;18.35;;;10.95;;
26582;SDS011;14230;45.382;10.998;2022-10-31T04:54:39;20.73;;;10.15;;
26582;SDS011;14230;45.382;10.998;2022-10-31T04:57:25;16.77;;;11.80;;
26582;SDS011;14230;45.382;10.998;2022-10-31T04:59:54;19.40;;;10.43;;
26582;SDS011;14230;45.382;10.998;2022-10-31T05:02:23;15.55;;;10.07;;
26582;SDS011;14230;45.382;10.998;2022-10-31T05:04:54;19.30;;;10.60;;
26582;SDS011;14230;45.382;10.998;2022-10-31T05:07:22;24.95;;;10.75;;
26582;SDS011;14230;45.382;10.998;2022-10-31T05:09:50;19.48;;;9.50;;
26582;SDS011;14230;45.382;10.998;2022-10-31T05:12:18;24.55;;;9.60;;
26582;SDS011;14230;45.382;10.998;2022-10-31T05:15:22;18.60;;;11.43;;
26582;SDS011;14230;45.382;10.998;2022-10-31T05:18:19;21.15;;;11.45;;
26582;SDS011;14230;45.382;10.998;2022-10-31T05:21:05;24.65;;;11.82;;
26582;SDS011;14230;45.382;10.998;2022-10-31T05:23:34;20.95;;;12.27;;
26582;SDS011;14230;45.382;10.998;2022-10-31T05:26:04;14.85;;;10.25;;
26582;SDS011;14230;45.382;10.998;2022-10-31T05:28:32;22.45;;;9.45;;
26582;SDS011;14230;45.382;10.998;2022-10-31T05:31:01;20.25;;;9.18;;
26582;SDS011;14230;45.382;10.998;2022-10-31T05:33:30;20.10;;;11.85;;
26582;SDS011;14230;45.382;10.998;2022-10-31T05:36:16;19.85;;;9.65;;
26582;SDS011;14230;45.382;10.998;2022-10-31T05:38:57;24.70;;;12.82;;
26582;SDS011;14230;45.382;10.998;2022-10-31T05:41:30;26.65;;;13.55;;
26582;SDS011;14230;45.382;10.998;2022-10-31T05:44:04;18.77;;;10.98;;
26582;SDS011;14230;45.382;10.998;2022-10-31T05:46:38;22.20;;;11.20;;
26582;SDS011;14230;45.382;10.998;2022-10-31T05:49:24;19.10;;;11.93;;
26582;SDS011;14230;45.382;10.998;2022-10-31T05:51:58;27.95;;;12.90;;
26582;SDS011;14230;45.382;10.998;2022-10-31T05:54:34;20.25;;;11.32;;
26582;SDS011;14230;45.382;10.998;2022-10-31T05:57:02;28.63;;;13.57;;
26582;SDS011;14230;45.382;10.998;2022-10-31T05:59:30;24.63;;;13.32;;
26582;SDS011;14230;45.382;10.998;2022-10-31T06:01:57;25.30;;;13.32;;
26582;SDS011;14230;45.382;10.998;2022-10-31T06:04:54;29.52;;;13.45;;
26582;SDS011;14230;45.382;10.998;2022-10-31T06:07:22;30.05;;;12.65;;
26582;SDS011;14230;45.382;10.998;2022-10-31T06:09:49;31.33;;;12.00;;
26582;SDS011;14230;45.382;10.998;2022-10-31T06:12:20;20.35;;;10.95;;
26582;SDS011;14230;45.382;10.998;2022-10-31T06:15:10;25.90;;;12.80;;
26582;SDS011;14230;45.382;10.998;2022-10-31T06:17:37;30.75;;;13.63;;
26582;SDS011;14230;45.382;10.998;2022-10-31T06:20:05;28.60;;;14.15;;
26582;SDS011;14230;45.382;10.998;2022-10-31T06:22:40;25.17;;;14.10;;
26582;SDS011;14230;45.382;10.998;2022-10-31T06:25:07;32.05;;;15.43;;
26582;SDS011;14230;45.382;10.998;2022-10-31T06:27:37;37.20;;;16.30;;
26582;SDS011;14230;45.382;10.998;2022-10-31T06:30:11;35.70;;;16.80;;
26582;SDS011;14230;45.382;10.998;2022-10-31T06:32:39;29.95;;;17.50;;
26582;SDS011;14230;45.382;10.998;2022-10-31T06:35:08;30.63;;;17.70;;
26582;SDS011;14230;45.382;10.998;2022-10-31T06:37:36;35.45;;;19.30;;
26582;SDS011;14230;45.382;10.998;2022-10-31T06:40:21;36.38;;;21.77;;
26582;SDS011;14230;45.382;10.998;2022-10-31T06:43:22;38.10;;;22.23;;
26582;SDS011;14230;45.382;10.998;2022-10-31T06:46:02;40.38;;;22.23;;
26582;SDS011;14230;45.382;10.998;2022-10-31T06:48:40;37.70;;;19.10;;
26582;SDS011;14230;45.382;10.998;2022-10-31T06:51:28;41.67;;;19.77;;
26582;SDS011;14230;45.382;10.998;2022-10-31T06:53:56;37.38;;;20.45;;
26582;SDS011;14230;45.382;10.998;2022-10-31T06:56:25;38.45;;;19.25;;
26582;SDS011;14230;45.382;10.998;2022-10-31T06:58:55;29.20;;;17.73;;
26582;SDS011;14230;45.382;10.998;2022-10-31T07:01:51;32.25;;;17.80;;
26582;SDS011;14230;45.382;10.998;2022-10-31T07:04:19;29.13;;;16.70;;
26582;SDS011;14230;45.382;10.998;2022-10-31T07:06:47;28.55;;;16.38;;
26582;SDS011;14230;45.382;10.998;2022-10-31T07:09:19;39.63;;;18.27;;
26582;SDS011;14230;45.382;10.998;2022-10-31T07:11:46;24.23;;;16.52;;
26582;SDS011;14230;45.382;10.998;2022-10-31T07:14:14;33.83;;;19.35;;
26582;SDS011;14230;45.382;10.998;2022-10-31T07:16:42;43.97;;;20.02;;
26582;SDS011;14230;45.382;10.998;2022-10-31T07:19:12;31.65;;;18.88;;
26582;SDS011;14230;45.382;10.998;2022-10-31T07:21:40;38.40;;;20.90;;
26582;SDS011;14230;45.382;10.998;2022-10-31T07:24:09;34.53;;;21.00;;
26582;SDS011;14230;45.382;10.998;2022-10-31T07:26:43;32.75;;;20.25;;
26582;SDS011;14230;45.382;10.998;2022-10-31T07:29:13;38.15;;;21.27;;
26582;SDS011;14230;45.382;10.998;2022-10-31T07:31:41;36.45;;;21.95;;
26582;SDS011;14230;45.382;10.998;2022-10-31T07:34:17;38.13;;;18.83;;
26582;SDS011;14230;45.382;10.998;2022-10-31T07:37:08;47.17;;;33.70;;
26582;SDS011;14230;45.382;10.998;2022-10-31T07:39:36;39.00;;;28.15;;
26582;SDS011;14230;45.382;10.998;2022-10-31T07:42:05;35.35;;;24.50;;
26582;SDS011;14230;45.382;10.998;2022-10-31T07:44:34;33.35;;;21.60;;
26582;SDS011;14230;45.382;10.998;2022-10-31T07:47:20;38.95;;;21.38;;
26582;SDS011;14230;45.382;10.998;2022-10-31T07:50:06;33.33;;;25.13;;
26582;SDS011;14230;45.382;10.998;2022-10-31T07:53:02;44.70;;;26.70;;
26582;SDS011;14230;45.382;10.998;2022-10-31T07:56:03;38.83;;;27.90;;
26582;SDS011;14230;45.382;10.998;2022-10-31T07:58:30;34.40;;;28.27;;
26582;SDS011;14230;45.382;10.998;2022-10-31T08:00:58;41.88;;;28.38;;
26582;SDS011;14230;45.382;10.998;2022-10-31T08:03:33;34.28;;;30.33;;
26582;SDS011;14230;45.382;10.998;2022-10-31T08:06:19;31.63;;;26.38;;
26582;SDS011;14230;45.382;10.998;2022-10-31T08:09:09;37.83;;;29.00;;
26582;SDS011;14230;45.382;10.998;2022-10-31T08:11:38;39.20;;;28.27;;
26582;SDS011;14230;45.382;10.998;2022-10-31T08:14:06;40.35;;;29.15;;
26582;SDS011;14230;45.382;10.998;2022-10-31T08:16:34;38.45;;;30.77;;
26582;SDS011;14230;45.382;10.998;2022-10-31T08:19:04;37.80;;;32.58;;
26582;SDS011;14230;45.382;10.998;2022-10-31T08:21:36;43.20;;;33.92;;
26582;SDS011;14230;45.382;10.998;2022-10-31T08:24:04;42.63;;;35.22;;
26582;SDS011;14230;45.382;10.998;2022-10-31T08:26:34;37.35;;;30.45;;
26582;SDS011;14230;45.382;10.998;2022-10-31T08:29:03;35.63;;;30.23;;
26582;SDS011;14230;45.382;10.998;2022-10-31T08:31:34;40.75;;;33.67;;
26582;SDS011;14230;45.382;10.998;2022-10-31T08:34:27;37.70;;;28.23;;
26582;SDS011;14230;45.382;10.998;2022-10-31T08:37:32;37.25;;;30.83;;
26582;SDS011;14230;45.382;10.998;2022-10-31T08:40:02;37.47;;;33.38;;
26582;SDS011;14230;45.382;10.998;2022-10-31T08:42:33;43.13;;;34.77;;
26582;SDS011;14230;45.382;10.998;2022-10-31T08:45:01;40.30;;;36.30;;
26582;SDS011;14230;45.382;10.998;2022-10-31T08:47:31;41.70;;;37.28;;
26582;SDS011;14230;45.382;10.998;2022-10-31T08:49:58;43.47;;;38.28;;
26582;SDS011;14230;45.382;10.998;2022-10-31T08:52:26;93.28;;;69.60;;
26582;SDS011;14230;45.382;10.998;2022-10-31T08:55:13;39.35;;;33.25;;
26582;SDS011;14230;45.382;10.998;2022-10-31T08:58:02;37.28;;;29.52;;
26582;SDS011;14230;45.382;10.998;2022-10-31T09:00:40;41.25;;;37.00;;
26582;SDS011;14230;45.382;10.998;2022-10-31T09:03:18;40.10;;;34.10;;
26582;SDS011;14230;45.382;10.998;2022-10-31T09:05:57;37.13;;;31.17;;
26582;SDS011;14230;45.382;10.998;2022-10-31T09:08:28;40.30;;;36.25;;
26582;SDS011;14230;45.382;10.998;2022-10-31T09:10:57;35.47;;;31.60;;
26582;SDS011;14230;45.382;10.998;2022-10-31T09:13:51;39.92;;;34.70;;
26582;SDS011;14230;45.382;10.998;2022-10-31T09:16:42;38.10;;;34.03;;
26582;SDS011;14230;45.382;10.998;2022-10-31T09:19:16;40.05;;;34.30;;
26582;SDS011;14230;45.382;10.998;2022-10-31T09:21:45;40.95;;;36.72;;
26582;SDS011;14230;45.382;10.998;2022-10-31T09:24:13;41.63;;;37.42;;
26582;SDS011;14230;45.382;10.998;2022-10-31T09:26:41;41.50;;;37.47;;
26582;SDS011;14230;45.382;10.998;2022-10-31T09:29:14;40.70;;;34.22;;
26582;SDS011;14230;45.382;10.998;2022-10-31T09:31:43;48.03;;;36.05;;
26582;SDS011;14230;45.382;10.998;2022-10-31T09:34:25;35.70;;;31.65;;
26582;SDS011;14230;45.382;10.998;2022-10-31T09:37:07;41.58;;;32.78;;
26582;SDS011;14230;45.382;10.998;2022-10-31T09:39:35;42.78;;;38.10;;
26582;SDS011;14230;45.382;10.998;2022-10-31T09:45:10;42.80;;;38.38;;
26582;SDS011;14230;45.382;10.998;2022-10-31T09:50:49;46.42;;;39.65;;
26582;SDS011;14230;45.382;10.998;2022-10-31T09:56:17;46.22;;;39.67;;
26582;SDS011;14230;45.382;10.998;2022-10-31T09:58:50;54.50;;;42.15;;
26582;SDS011;14230;45.382;10.998;2022-10-31T10:04:31;55.67;;;42.92;;
26582;SDS011;14230;45.382;10.998;2022-10-31T10:07:25;51.00;;;45.50;;
26582;SDS011;14230;45.382;10.998;2022-10-31T10:10:14;51.08;;;40.88;;
26582;SDS011;14230;45.382;10.998;2022-10-31T10:26:36;62.85;;;34.83;;
26582;SDS011;14230;45.382;10.998;2022-10-31T10:32:00;47.90;;;35.72;;
26582;SDS011;14230;45.382;10.998;2022-10-31T10:34:37;49.83;;;36.05;;
26582;SDS011;14230;45.382;10.998;2022-10-31T10:37:20;56.92;;;34.75;;
26582;SDS011;14230;45.382;10.998;2022-10-31T10:42:38;44.80;;;33.50;;
26582;SDS011;14230;45.382;10.998;2022-10-31T10:45:25;47.70;;;35.45;;
26582;SDS011;14230;45.382;10.998;2022-10-31T10:51:18;40.88;;;30.05;;
26582;SDS011;14230;45.382;10.998;2022-10-31T10:59:26;49.22;;;34.72;;
26582;SDS011;14230;45.382;10.998;2022-10-31T11:01:54;53.15;;;33.80;;
26582;SDS011;14230;45.382;10.998;2022-10-31T11:04:26;43.95;;;32.63;;
26582;SDS011;14230;45.382;10.998;2022-10-31T11:07:15;48.53;;;34.45;;
26582;SDS011;14230;45.382;10.998;2022-10-31T11:09:43;45.47;;;35.95;;
26582;SDS011;14230;45.382;10.998;2022-10-31T11:12:23;49.15;;;35.15;;
26582;SDS011;14230;45.382;10.998;2022-10-31T11:14:59;52.35;;;34.15;;
26582;SDS011;14230;45.382;10.998;2022-10-31T11:17:34;53.47;;;32.78;;
26582;SDS011;14230;45.382;10.998;2022-10-31T11:23:02;48.90;;;31.55;;
26582;SDS011;14230;45.382;10.998;2022-10-31T11:25:49;46.05;;;32.92;;
26582;SDS011;14230;45.382;10.998;2022-10-31T11:28:17;45.17;;;31.90;;
26582;SDS011;14230;45.382;10.998;2022-10-31T11:30:45;49.47;;;32.92;;
26582;SDS011;14230;45.382;10.998;2022-10-31T11:33:45;52.95;;;32.65;;
26582;SDS011;14230;45.382;10.998;2022-10-31T11:36:36;49.92;;;33.25;;
26582;SDS011;14230;45.382;10.998;2022-10-31T11:39:04;48.63;;;28.52;;
26582;SDS011;14230;45.382;10.998;2022-10-31T11:41:41;48.00;;;32.13;;
26582;SDS011;14230;45.382;10.998;2022-10-31T11:44:16;40.85;;;26.65;;
26582;SDS011;14230;45.382;10.998;2022-10-31T11:46:47;41.35;;;29.42;;
26582;SDS011;14230;45.382;10.998;2022-10-31T11:52:25;40.38;;;26.30;;
26582;SDS011;14230;45.382;10.998;2022-10-31T11:57:43;43.00;;;25.27;;
26582;SDS011;14230;45.382;10.998;2022-10-31T12:09:10;43.92;;;26.65;;
26582;SDS011;14230;45.382;10.998;2022-10-31T12:11:59;44.97;;;26.38;;
26582;SDS011;14230;45.382;10.998;2022-10-31T12:17:21;36.88;;;25.77;;
26582;SDS011;14230;45.382;10.998;2022-10-31T12:31:25;37.25;;;24.25;;
26582;SDS011;14230;45.382;10.998;2022-10-31T12:34:11;40.72;;;25.13;;
26582;SDS011;14230;45.382;10.998;2022-10-31T12:59:28;54.42;;;24.90;;
26582;SDS011;14230;45.382;10.998;2022-10-31T13:05:04;35.40;;;22.73;;
26582;SDS011;14230;45.382;10.998;2022-10-31T13:10:42;32.33;;;22.27;;
26582;SDS011;14230;45.382;10.998;2022-10-31T13:13:18;34.30;;;22.83;;
26582;SDS011;14230;45.382;10.998;2022-10-31T13:16:18;43.30;;;24.35;;
26582;SDS011;14230;45.382;10.998;2022-10-31T13:18:57;36.42;;;23.90;;
26582;SDS011;14230;45.382;10.998;2022-10-31T13:21:33;37.58;;;25.02;;
26582;SDS011;14230;45.382;10.998;2022-10-31T13:24:15;38.38;;;25.58;;
26582;SDS011;14230;45.382;10.998;2022-10-31T13:26:56;36.85;;;25.17;;
26582;SDS011;14230;45.382;10.998;2022-10-31T13:29:27;36.65;;;24.08;;
26582;SDS011;14230;45.382;10.998;2022-10-31T13:32:19;40.30;;;25.25;;
26582;SDS011;14230;45.382;10.998;2022-10-31T13:34:48;40.53;;;26.88;;
26582;SDS011;14230;45.382;10.998;2022-10-31T13:40:12;41.28;;;23.00;;
26582;SDS011;14230;45.382;10.998;2022-10-31T13:45:21;33.80;;;22.15;;
26582;SDS011;14230;45.382;10.998;2022-10-31T13:50:25;42.28;;;23.27;;
26582;SDS011;14230;45.382;10.998;2022-10-31T13:56:04;36.58;;;23.60;;
26582;SDS011;14230;45.382;10.998;2022-10-31T14:01:56;32.17;;;20.77;;
26582;SDS011;14230;45.382;10.998;2022-10-31T14:04:31;39.85;;;24.00;;
26582;SDS011;14230;45.382;10.998;2022-10-31T14:07:11;48.88;;;23.85;;
26582;SDS011;14230;45.382;10.998;2022-10-31T14:09:54;37.03;;;22.00;;
26582;SDS011;14230;45.382;10.998;2022-10-31T14:14:55;40.63;;;25.33;;
26582;SDS011;14230;45.382;10.998;2022-10-31T14:18:00;31.83;;;21.85;;
26582;SDS011;14230;45.382;10.998;2022-10-31T14:20:41;41.00;;;22.70;;
26582;SDS011;14230;45.382;10.998;2022-10-31T14:23:11;41.42;;;22.90;;
26582;SDS011;14230;45.382;10.998;2022-10-31T14:25:39;32.53;;;21.13;;
26582;SDS011;14230;45.382;10.998;2022-10-31T14:28:20;43.08;;;21.67;;
26582;SDS011;14230;45.382;10.998;2022-10-31T14:31:01;36.03;;;21.65;;
26582;SDS011;14230;45.382;10.998;2022-10-31T14:33:29;37.30;;;22.85;;
26582;SDS011;14230;45.382;10.998;2022-10-31T14:36:09;40.72;;;23.50;;
26582;SDS011;14230;45.382;10.998;2022-10-31T14:41:33;36.00;;;22.65;;
26582;SDS011;14230;45.382;10.998;2022-10-31T14:52:23;44.15;;;22.35;;
26582;SDS011;14230;45.382;10.998;2022-10-31T14:54:52;40.38;;;23.02;;
26582;SDS011;14230;45.382;10.998;2022-10-31T14:57:22;35.97;;;22.75;;
26582;SDS011;14230;45.382;10.998;2022-10-31T14:59:59;34.22;;;20.00;;
26582;SDS011;14230;45.382;10.998;2022-10-31T15:05:26;33.03;;;19.52;;
26582;SDS011;14230;45.382;10.998;2022-10-31T15:07:55;34.17;;;22.08;;
26582;SDS011;14230;45.382;10.998;2022-10-31T15:10:31;33.72;;;21.00;;
26582;SDS011;14230;45.382;10.998;2022-10-31T15:13:19;29.00;;;20.80;;
26582;SDS011;14230;45.382;10.998;2022-10-31T15:15:51;45.17;;;22.30;;
26582;SDS011;14230;45.382;10.998;2022-10-31T15:18:23;37.45;;;20.73;;
26582;SDS011;14230;45.382;10.998;2022-10-31T15:20:53;37.47;;;21.00;;
26582;SDS011;14230;45.382;10.998;2022-10-31T15:23:25;35.60;;;20.50;;
26582;SDS011;14230;45.382;10.998;2022-10-31T15:26:03;31.83;;;19.33;;
26582;SDS011;14230;45.382;10.998;2022-10-31T15:28:32;44.85;;;20.90;;
26582;SDS011;14230;45.382;10.998;2022-10-31T15:31:00;35.95;;;20.42;;
26582;SDS011;14230;45.382;10.998;2022-10-31T15:33:31;45.15;;;19.83;;
26582;SDS011;14230;45.382;10.998;2022-10-31T15:36:20;40.83;;;19.98;;
26582;SDS011;14230;45.382;10.998;2022-10-31T15:38:55;34.70;;;18.67;;
26582;SDS011;14230;45.382;10.998;2022-10-31T15:44:00;38.88;;;19.65;;
26582;SDS011;14230;45.382;10.998;2022-10-31T15:46:41;38.78;;;19.60;;
26582;SDS011;14230;45.382;10.998;2022-10-31T15:49:15;34.17;;;21.48;;
26582;SDS011;14230;45.382;10.998;2022-10-31T15:51:56;34.55;;;18.95;;
26582;SDS011;14230;45.382;10.998;2022-10-31T15:54:26;39.10;;;21.27;;
26582;SDS011;14230;45.382;10.998;2022-10-31T15:56:55;38.13;;;20.92;;
26582;SDS011;14230;45.382;10.998;2022-10-31T15:59:23;36.28;;;21.00;;
26582;SDS011;14230;45.382;10.998;2022-10-31T16:02:00;39.88;;;22.98;;
26582;SDS011;14230;45.382;10.998;2022-10-31T16:04:30;38.88;;;23.02;;
26582;SDS011;14230;45.382;10.998;2022-10-31T16:07:01;43.90;;;22.35;;
26582;SDS011;14230;45.382;10.998;2022-10-31T16:12:24;43.33;;;20.88;;
26582;SDS011;14230;45.382;10.998;2022-10-31T16:14:57;32.97;;;22.52;;
26582;SDS011;14230;45.382;10.998;2022-10-31T16:17:25;37.38;;;22.67;;
26582;SDS011;14230;45.382;10.998;2022-10-31T16:19:57;39.65;;;23.30;;
26582;SDS011;14230;45.382;10.998;2022-10-31T16:22:32;41.90;;;23.67;;
26582;SDS011;14230;45.382;10.998;2022-10-31T16:25:36;37.22;;;23.25;;
26582;SDS011;14230;45.382;10.998;2022-10-31T16:30:46;44.53;;;23.05;;
26582;SDS011;14230;45.382;10.998;2022-10-31T16:35:57;39.05;;;22.70;;
26582;SDS011;14230;45.382;10.998;2022-10-31T16:38:41;45.53;;;23.52;;
26582;SDS011;14230;45.382;10.998;2022-10-31T16:41:09;41.13;;;22.35;;
26582;SDS011;14230;45.382;10.998;2022-10-31T16:43:36;48.60;;;25.20;;
26582;SDS011;14230;45.382;10.998;2022-10-31T16:46:04;54.88;;;24.13;;
26582;SDS011;14230;45.382;10.998;2022-10-31T16:48:31;44.05;;;24.50;;
26582;SDS011;14230;45.382;10.998;2022-10-31T16:50:59;58.28;;;24.55;;
26582;SDS011;14230;45.382;10.998;2022-10-31T16:53:26;41.95;;;23.20;;
26582;SDS011;14230;45.382;10.998;2022-10-31T16:55:54;43.28;;;23.10;;
26582;SDS011;14230;45.382;10.998;2022-10-31T16:58:28;43.80;;;22.85;;
26582;SDS011;14230;45.382;10.998;2022-10-31T17:00:59;34.63;;;23.25;;
26582;SDS011;14230;45.382;10.998;2022-10-31T17:03:27;39.70;;;22.50;;
26582;SDS011;14230;45.382;10.998;2022-10-31T17:05:56;49.30;;;23.50;;
26582;SDS011;14230;45.382;10.998;2022-10-31T17:08:24;49.22;;;23.77;;
26582;SDS011;14230;45.382;10.998;2022-10-31T17:10:53;43.13;;;22.55;;
26582;SDS011;14230;45.382;10.998;2022-10-31T17:13:23;51.90;;;24.42;;
26582;SDS011;14230;45.382;10.998;2022-10-31T17:15:56;60.60;;;25.45;;
26582;SDS011;14230;45.382;10.998;2022-10-31T17:18:25;51.80;;;25.48;;
26582;SDS011;14230;45.382;10.998;2022-10-31T17:20:54;63.53;;;26.85;;
26582;SDS011;14230;45.382;10.998;2022-10-31T17:23:26;50.20;;;26.55;;
26582;SDS011;14230;45.382;10.998;2022-10-31T17:25:54;61.78;;;27.88;;
26582;SDS011;14230;45.382;10.998;2022-10-31T17:28:22;53.35;;;25.15;;
26582;SDS011;14230;45.382;10.998;2022-10-31T17:30:56;53.67;;;25.92;;
26582;SDS011;14230;45.382;10.998;2022-10-31T17:33:24;48.58;;;26.10;;
26582;SDS011;14230;45.382;10.998;2022-10-31T17:35:52;60.33;;;28.42;;
26582;SDS011;14230;45.382;10.998;2022-10-31T17:38:20;49.72;;;24.67;;
26582;SDS011;14230;45.382;10.998;2022-10-31T17:40:47;61.55;;;27.08;;
26582;SDS011;14230;45.382;10.998;2022-10-31T17:43:15;51.80;;;26.50;;
26582;SDS011;14230;45.382;10.998;2022-10-31T17:45:42;53.42;;;27.80;;
26582;SDS011;14230;45.382;10.998;2022-10-31T17:48:10;57.78;;;27.70;;
26582;SDS011;14230;45.382;10.998;2022-10-31T17:50:38;51.22;;;25.88;;
26582;SDS011;14230;45.382;10.998;2022-10-31T17:53:06;61.40;;;27.33;;